createdAt,value
2023-05-06T00:01:22.660Z,2.60
2023-05-06T00:03:52.042Z,2.70
2023-05-06T00:06:19.940Z,2.80
2023-05-06T00:08:47.893Z,2.70
2023-05-06T00:11:15.753Z,3.30
2023-05-06T00:13:43.619Z,3.00
2023-05-06T00:16:11.515Z,2.80
2023-05-06T00:18:39.352Z,2.80
2023-05-06T00:21:07.217Z,3.00
2023-05-06T00:23:35.095Z,2.90
2023-05-06T00:26:02.947Z,3.00
2023-05-06T00:28:30.812Z,2.80
2023-05-06T00:30:58.548Z,3.30
2023-05-06T00:33:27.064Z,3.50
2023-05-06T00:35:54.921Z,3.50
2023-05-06T00:38:23.402Z,3.60
2023-05-06T00:40:51.162Z,3.30
2023-05-06T00:43:19.054Z,3.20
2023-05-06T00:45:48.417Z,3.10
2023-05-06T00:48:16.844Z,3.10
2023-05-06T00:50:45.837Z,2.90
2023-05-06T00:53:13.622Z,3.50
2023-05-06T00:55:41.663Z,3.60
2023-05-06T00:58:09.520Z,3.30
2023-05-06T01:00:37.831Z,3.20
2023-05-06T01:03:05.955Z,2.80
2023-05-06T01:05:46.189Z,3.70
2023-05-06T01:08:26.637Z,4.40
2023-05-06T01:11:01.771Z,4.00
2023-05-06T01:13:41.775Z,2.90
2023-05-06T01:16:12.919Z,3.00
2023-05-06T01:18:43.218Z,3.10
2023-05-06T01:21:12.946Z,3.40
2023-05-06T01:23:58.289Z,2.90
2023-05-06T01:26:27.385Z,3.10
2023-05-06T01:28:56.621Z,3.10
2023-05-06T01:31:33.628Z,3.50
2023-05-06T01:34:28.131Z,2.90
2023-05-06T01:37:03.217Z,3.20
2023-05-06T01:39:33.338Z,3.10
2023-05-06T01:42:02.873Z,3.00
2023-05-06T01:44:34.509Z,3.70
2023-05-06T01:47:03.078Z,2.90
2023-05-06T01:49:31.046Z,3.10
2023-05-06T01:51:58.865Z,3.40
2023-05-06T01:54:26.772Z,2.90
2023-05-06T01:56:54.558Z,3.20
2023-05-06T01:59:22.369Z,3.20
2023-05-06T02:01:50.251Z,2.70
2023-05-06T02:04:18.141Z,2.60
2023-05-06T02:06:45.902Z,3.30
2023-05-06T02:09:13.777Z,2.80
2023-05-06T02:11:41.626Z,2.70
2023-05-06T02:14:09.494Z,3.20
2023-05-06T02:16:37.385Z,3.10
2023-05-06T02:19:06.562Z,3.20
2023-05-06T02:21:34.527Z,3.50
2023-05-06T02:24:02.406Z,3.20
2023-05-06T02:26:30.255Z,2.70
2023-05-06T02:28:57.968Z,2.90
2023-05-06T02:31:26.068Z,3.30
2023-05-06T02:33:53.849Z,3.20
2023-05-06T02:36:21.767Z,3.00
2023-05-06T02:38:49.688Z,3.10
2023-05-06T02:41:17.552Z,2.60
2023-05-06T02:43:45.320Z,3.10
2023-05-06T02:46:13.858Z,2.90
2023-05-06T02:48:42.176Z,2.90
2023-05-06T02:51:09.954Z,2.60
2023-05-06T02:53:37.809Z,3.10
2023-05-06T02:56:06.219Z,2.30
2023-05-06T02:58:34.043Z,2.60
2023-05-06T03:01:02.463Z,2.60
2023-05-06T03:03:30.295Z,2.50
2023-05-06T03:05:58.153Z,2.80
2023-05-06T03:08:26.026Z,2.30
2023-05-06T03:10:53.891Z,2.60
2023-05-06T03:13:22.671Z,2.40
2023-05-06T03:15:54.350Z,2.70
2023-05-06T03:18:22.825Z,3.00
2023-05-06T03:20:51.153Z,3.00
2023-05-06T03:23:19.151Z,2.90
2023-05-06T03:25:46.980Z,2.80
2023-05-06T03:28:14.778Z,2.70
2023-05-06T03:30:42.645Z,2.80
2023-05-06T03:33:11.026Z,2.70
2023-05-06T03:35:38.919Z,3.10
2023-05-06T03:38:07.209Z,3.40
2023-05-06T03:40:35.231Z,3.10
2023-05-06T03:43:03.106Z,2.50
2023-05-06T03:45:31.074Z,2.50
2023-05-06T03:47:58.870Z,3.00
2023-05-06T03:50:27.014Z,2.40
2023-05-06T03:52:54.896Z,2.60
2023-05-06T03:55:22.845Z,2.60
2023-05-06T03:57:50.709Z,3.10
2023-05-06T04:00:18.677Z,3.00
2023-05-06T04:02:46.669Z,2.70
2023-05-06T04:05:14.645Z,2.20
2023-05-06T04:07:42.405Z,2.20
2023-05-06T04:10:10.915Z,3.00
2023-05-06T04:12:38.779Z,2.40
2023-05-06T04:15:07.820Z,2.50
2023-05-06T04:17:35.913Z,3.00
2023-05-06T04:20:04.988Z,2.60
2023-05-06T04:22:33.265Z,2.50
2023-05-06T04:25:01.427Z,2.60
2023-05-06T04:27:30.008Z,2.60
2023-05-06T04:29:58.508Z,2.10
2023-05-06T04:32:26.366Z,2.20
2023-05-06T04:34:54.331Z,2.60
2023-05-06T04:37:22.289Z,2.40
2023-05-06T04:39:50.259Z,2.50
2023-05-06T04:42:18.131Z,2.90
2023-05-06T04:44:45.888Z,2.60
2023-05-06T04:47:14.168Z,2.60
2023-05-06T04:49:42.377Z,2.40
2023-05-06T04:52:10.137Z,2.60
2023-05-06T04:54:37.912Z,2.40
2023-05-06T04:57:05.933Z,2.60
2023-05-06T04:59:33.706Z,2.60
2023-05-06T05:02:01.524Z,2.50
2023-05-06T05:04:29.328Z,2.60
2023-05-06T05:06:57.921Z,2.50
2023-05-06T05:09:26.029Z,2.50
2023-05-06T05:11:53.863Z,2.20
2023-05-06T05:14:22.034Z,2.60
2023-05-06T05:16:50.229Z,2.50
2023-05-06T05:19:18.004Z,2.30
2023-05-06T05:21:45.778Z,2.40
2023-05-06T05:24:13.579Z,2.00
2023-05-06T05:26:41.618Z,2.40
2023-05-06T05:29:09.516Z,2.40
2023-05-06T05:31:37.293Z,2.50
2023-05-06T05:34:05.453Z,2.10
2023-05-06T05:36:33.217Z,2.10
2023-05-06T05:39:01.090Z,2.60
2023-05-06T05:41:28.854Z,2.70
2023-05-06T05:43:56.717Z,2.30
2023-05-06T05:46:24.528Z,2.30
2023-05-06T05:48:52.374Z,2.30
2023-05-06T05:51:20.208Z,2.40
2023-05-06T05:53:48.402Z,2.50
2023-05-06T05:56:16.886Z,2.50
2023-05-06T05:58:44.734Z,2.20
2023-05-06T06:01:12.599Z,2.60
2023-05-06T06:03:40.991Z,2.20
2023-05-06T06:06:09.975Z,2.50
2023-05-06T06:08:37.828Z,2.40
2023-05-06T06:11:06.333Z,2.90
2023-05-06T06:13:34.231Z,2.60
2023-05-06T06:16:02.293Z,2.40
2023-05-06T06:18:30.110Z,2.50
2023-05-06T06:20:57.908Z,2.50
2023-05-06T06:23:26.356Z,2.30
2023-05-06T06:25:54.224Z,2.00
2023-05-06T06:28:22.291Z,2.40
2023-05-06T06:30:50.050Z,2.30
2023-05-06T06:33:17.815Z,2.70
2023-05-06T06:35:45.577Z,2.80
2023-05-06T06:38:13.445Z,2.20
2023-05-06T06:40:41.208Z,2.10
2023-05-06T06:43:09.022Z,2.20
2023-05-06T06:45:37.072Z,2.30
2023-05-06T06:48:05.574Z,2.30
2023-05-06T06:50:33.500Z,1.90
2023-05-06T06:53:01.831Z,2.00
2023-05-06T06:55:31.280Z,2.50
2023-05-06T06:57:59.139Z,1.80
2023-05-06T07:00:27.005Z,2.60
2023-05-06T07:02:54.900Z,2.50
2023-05-06T07:05:23.037Z,2.30
2023-05-06T07:07:50.911Z,1.90
2023-05-06T07:10:18.869Z,2.30
2023-05-06T07:12:46.769Z,2.20
2023-05-06T07:15:14.804Z,2.00
2023-05-06T07:17:42.830Z,2.10
2023-05-06T07:20:11.964Z,2.30
2023-05-06T07:22:41.479Z,2.40
2023-05-06T07:25:09.926Z,2.20
2023-05-06T07:27:38.158Z,2.70
2023-05-06T07:30:07.049Z,2.00
2023-05-06T07:32:35.112Z,1.80
2023-05-06T07:35:03.876Z,2.80
2023-05-06T07:37:31.750Z,2.20
2023-05-06T07:39:59.717Z,2.10
2023-05-06T07:42:27.568Z,2.10
2023-05-06T07:44:55.550Z,2.40
2023-05-06T07:47:29.353Z,2.40
2023-05-06T07:49:57.726Z,2.00
2023-05-06T07:52:26.165Z,1.90
2023-05-06T07:54:54.274Z,1.70
2023-05-06T07:57:22.257Z,2.20
2023-05-06T07:59:51.805Z,2.40
2023-05-06T08:02:19.652Z,2.10
2023-05-06T08:04:48.961Z,2.20
2023-05-06T08:07:18.112Z,1.90
2023-05-06T08:09:46.644Z,1.70
2023-05-06T08:12:15.931Z,2.10
2023-05-06T08:14:43.755Z,1.70
2023-05-06T08:17:13.413Z,1.50
2023-05-06T08:19:41.227Z,2.50
2023-05-06T08:22:09.103Z,2.00
2023-05-06T08:24:37.170Z,2.10
2023-05-06T08:27:05.142Z,2.10
2023-05-06T08:29:32.898Z,2.00
2023-05-06T08:32:01.667Z,1.90
2023-05-06T08:34:30.069Z,1.90
2023-05-06T08:36:58.024Z,1.70
2023-05-06T08:39:26.006Z,2.00
2023-05-06T08:41:56.738Z,2.10
2023-05-06T08:44:25.417Z,2.30
2023-05-06T08:46:53.590Z,1.90
2023-05-06T08:49:21.825Z,2.00
2023-05-06T08:51:54.867Z,1.90
2023-05-06T08:54:25.180Z,2.10
2023-05-06T08:56:54.889Z,1.90
2023-05-06T08:59:26.995Z,2.50
2023-05-06T09:01:54.805Z,1.60
2023-05-06T09:04:22.691Z,2.50
2023-05-06T09:06:50.440Z,2.90
2023-05-06T09:09:18.176Z,2.20
2023-05-06T09:11:46.212Z,2.40
2023-05-06T09:14:18.263Z,1.90
2023-05-06T09:16:49.765Z,2.50
2023-05-06T09:19:19.400Z,2.40
2023-05-06T09:21:49.748Z,2.30
2023-05-06T09:24:17.784Z,2.40
2023-05-06T09:26:47.114Z,2.30
2023-05-06T09:29:15.048Z,2.00
2023-05-06T09:31:45.839Z,2.70
2023-05-06T09:34:15.961Z,2.80
2023-05-06T09:36:44.593Z,2.90
2023-05-06T09:39:12.458Z,3.10
2023-05-06T09:41:40.430Z,3.00
2023-05-06T09:44:08.607Z,2.40
2023-05-06T09:46:37.215Z,2.10
2023-05-06T09:49:05.257Z,2.10
2023-05-06T09:51:33.128Z,2.30
2023-05-06T09:54:01.942Z,2.70
2023-05-06T09:56:31.357Z,2.70
2023-05-06T09:59:01.528Z,2.10
2023-05-06T10:01:36.780Z,1.90
2023-05-06T10:04:09.818Z,1.80
2023-05-06T10:06:40.953Z,2.10
2023-05-06T10:09:09.719Z,2.20
2023-05-06T10:11:37.675Z,2.30
2023-05-06T10:14:06.238Z,2.20
2023-05-06T10:16:36.364Z,1.70
2023-05-06T10:19:08.165Z,2.00
2023-05-06T10:21:40.277Z,2.00
2023-05-06T10:24:12.057Z,1.70
2023-05-06T10:26:42.684Z,2.10
2023-05-06T10:29:11.554Z,2.40
2023-05-06T10:31:47.882Z,2.00
2023-05-06T10:34:19.641Z,2.30
2023-05-06T10:36:52.107Z,2.50
2023-05-06T10:39:21.137Z,2.20
2023-05-06T10:41:49.481Z,2.10
2023-05-06T10:44:17.361Z,2.00
2023-05-06T10:46:59.866Z,2.30
2023-05-06T10:49:28.185Z,2.10
2023-05-06T10:52:17.140Z,2.00
2023-05-06T10:54:50.815Z,2.00
2023-05-06T10:57:22.638Z,2.00
2023-05-06T10:59:50.688Z,2.20
2023-05-06T11:02:20.817Z,2.30
2023-05-06T11:04:59.713Z,2.20
2023-05-06T11:07:27.803Z,1.80
2023-05-06T11:09:58.559Z,2.50
2023-05-06T11:12:45.641Z,2.10
2023-05-06T11:15:21.488Z,2.40
2023-05-06T11:17:49.582Z,2.00
2023-05-06T11:20:22.343Z,2.00
2023-05-06T11:22:50.350Z,2.60
2023-05-06T11:25:43.374Z,2.20
2023-05-06T11:28:12.592Z,2.10
2023-05-06T11:30:44.727Z,2.20
2023-05-06T11:33:19.873Z,2.60
2023-05-06T11:35:48.177Z,1.90
2023-05-06T11:38:15.984Z,2.30
2023-05-06T11:40:43.950Z,2.20
2023-05-06T11:43:16.880Z,2.40
2023-05-06T11:45:46.785Z,2.20
2023-05-06T11:48:18.552Z,2.10
2023-05-06T11:50:48.520Z,2.20
2023-05-06T11:53:22.094Z,2.10
2023-05-06T11:55:52.958Z,2.40
2023-05-06T11:58:26.568Z,2.40
2023-05-06T12:00:56.670Z,2.30
2023-05-06T12:03:26.580Z,2.40
2023-05-06T12:05:55.826Z,2.10
2023-05-06T12:08:34.955Z,2.70
2023-05-06T12:11:08.243Z,2.40
2023-05-06T12:13:37.965Z,2.60
2023-05-06T12:16:08.643Z,3.00
2023-05-06T12:18:36.976Z,2.60
2023-05-06T12:21:06.423Z,2.90
2023-05-06T12:23:34.852Z,3.70
2023-05-06T12:26:05.886Z,3.50
2023-05-06T12:28:36.494Z,3.20
2023-05-06T12:31:21.903Z,4.70
2023-05-06T12:33:50.789Z,4.40
2023-05-06T12:36:19.938Z,3.90
2023-05-06T12:38:52.781Z,4.50
2023-05-06T12:41:21.762Z,5.20
2023-05-06T12:43:50.525Z,5.20
2023-05-06T12:46:19.131Z,4.10
2023-05-06T12:49:00.613Z,4.40
2023-05-06T12:51:31.012Z,3.80
2023-05-06T12:54:01.064Z,3.60
2023-05-06T12:56:29.491Z,3.70
2023-05-06T12:59:06.704Z,3.40
2023-05-06T13:01:34.775Z,3.70
2023-05-06T13:04:02.853Z,4.10
2023-05-06T13:06:31.763Z,3.50
2023-05-06T13:08:59.891Z,3.50
2023-05-06T13:11:28.294Z,3.60
2023-05-06T13:13:56.644Z,4.40
2023-05-06T13:16:25.034Z,4.00
2023-05-06T13:18:53.423Z,3.80
2023-05-06T13:21:21.549Z,3.30
2023-05-06T13:23:49.900Z,3.90
2023-05-06T13:26:18.833Z,4.00
2023-05-06T13:28:47.053Z,4.40
2023-05-06T13:31:15.547Z,3.20
2023-05-06T13:33:44.235Z,3.80
2023-05-06T13:36:13.299Z,4.80
2023-05-06T13:38:41.652Z,7.20
2023-05-06T13:41:09.932Z,4.80
2023-05-06T13:43:38.049Z,3.30
2023-05-06T13:46:08.202Z,3.80
2023-05-06T13:48:36.419Z,3.00
2023-05-06T13:51:05.358Z,3.60
2023-05-06T13:53:33.985Z,3.40
2023-05-06T13:56:02.423Z,3.40
2023-05-06T13:58:31.397Z,3.70
2023-05-06T14:00:59.363Z,4.20
2023-05-06T14:03:27.460Z,4.20
2023-05-06T14:05:55.426Z,4.70
2023-05-06T14:08:23.273Z,4.10
2023-05-06T14:10:51.262Z,4.50
2023-05-06T14:13:19.201Z,4.30
2023-05-06T14:15:47.288Z,4.40
2023-05-06T14:18:15.199Z,4.30
2023-05-06T14:20:43.268Z,4.10
2023-05-06T14:23:11.308Z,3.80
2023-05-06T14:25:39.171Z,4.70
2023-05-06T14:28:07.647Z,4.30
2023-05-06T14:30:36.034Z,4.40
2023-05-06T14:33:04.107Z,3.90
2023-05-06T14:35:32.271Z,4.00
2023-05-06T14:38:00.790Z,4.40
2023-05-06T14:40:28.671Z,4.20
2023-05-06T14:42:56.585Z,3.90
2023-05-06T14:45:24.732Z,4.50
2023-05-06T14:47:52.844Z,4.10
2023-05-06T14:50:21.200Z,4.20
2023-05-06T14:52:49.800Z,4.60
2023-05-06T14:55:18.236Z,4.70
2023-05-06T14:57:46.130Z,4.20
2023-05-06T15:00:15.063Z,4.60
2023-05-06T15:02:43.023Z,4.50
2023-05-06T15:05:12.582Z,4.20
2023-05-06T15:07:41.276Z,4.90
2023-05-06T15:10:09.312Z,4.70
2023-05-06T15:12:37.572Z,5.40
2023-05-06T15:15:06.604Z,5.50
2023-05-06T15:17:38.100Z,4.60
2023-05-06T15:20:08.806Z,5.60
2023-05-06T15:22:38.777Z,5.00
2023-05-06T15:25:12.401Z,3.80
2023-05-06T15:27:44.684Z,4.80
2023-05-06T15:30:14.233Z,3.80
2023-05-06T15:32:42.203Z,5.00
2023-05-06T15:35:10.198Z,5.90
2023-05-06T15:37:38.299Z,4.50
2023-05-06T15:40:13.638Z,5.20
2023-05-06T15:42:41.606Z,4.60
2023-05-06T15:45:11.191Z,5.60
2023-05-06T15:47:39.104Z,5.80
2023-05-06T15:50:20.140Z,5.70
2023-05-06T15:52:53.287Z,5.80
2023-05-06T15:55:21.312Z,6.80
2023-05-06T15:57:49.176Z,5.90
2023-05-06T16:00:17.587Z,7.60
2023-05-06T16:02:45.522Z,6.60
2023-05-06T16:05:13.600Z,5.40
2023-05-06T16:07:41.660Z,6.70
2023-05-06T16:10:09.598Z,6.00
2023-05-06T16:12:37.672Z,5.00
2023-05-06T16:15:06.210Z,6.30
2023-05-06T16:17:37.975Z,8.00
2023-05-06T16:20:09.241Z,7.70
2023-05-06T16:22:40.024Z,6.40
2023-05-06T16:25:08.303Z,7.10
2023-05-06T16:27:36.164Z,8.30
2023-05-06T16:30:04.704Z,7.60
2023-05-06T16:32:32.727Z,7.20
2023-05-06T16:35:00.890Z,6.90
2023-05-06T16:37:29.395Z,6.00
2023-05-06T16:39:57.275Z,5.70
2023-05-06T16:42:25.095Z,7.90
2023-05-06T16:44:52.908Z,6.40
2023-05-06T16:47:24.519Z,7.20
2023-05-06T16:49:53.094Z,5.70
2023-05-06T16:52:20.958Z,6.00
2023-05-06T16:54:51.307Z,4.70
2023-05-06T16:57:19.983Z,5.60
2023-05-06T16:59:47.935Z,5.80
2023-05-06T17:02:15.838Z,5.80
2023-05-06T17:04:43.766Z,6.40
2023-05-06T17:07:11.692Z,6.00
2023-05-06T17:09:39.957Z,6.60
2023-05-06T17:12:08.126Z,6.00
2023-05-06T17:14:35.939Z,6.50
2023-05-06T17:17:05.534Z,5.80
2023-05-06T17:19:33.952Z,6.50
2023-05-06T17:22:01.900Z,6.00
2023-05-06T17:24:29.679Z,5.10
2023-05-06T17:26:57.526Z,5.40
2023-05-06T17:29:26.013Z,5.90
2023-05-06T17:31:54.191Z,6.60
2023-05-06T17:36:55.342Z,4.80
2023-05-06T17:39:23.156Z,5.10
2023-05-06T17:41:50.976Z,5.30
2023-05-06T17:44:18.897Z,5.90
2023-05-06T17:46:48.708Z,4.70
2023-05-06T17:49:16.812Z,4.60
2023-05-06T17:51:46.373Z,4.60
2023-05-06T17:54:14.397Z,6.10
2023-05-06T17:56:42.403Z,5.80
2023-05-06T17:59:11.575Z,5.80
2023-05-06T18:01:39.575Z,4.70
2023-05-06T18:04:07.772Z,5.30
2023-05-06T18:06:35.873Z,5.70
2023-05-06T18:09:04.166Z,5.00
2023-05-06T18:11:32.125Z,5.50
2023-05-06T18:14:00.225Z,4.90
2023-05-06T18:16:28.157Z,6.10
2023-05-06T18:18:57.263Z,4.60
2023-05-06T18:21:25.276Z,5.90
2023-05-06T18:24:02.099Z,5.60
2023-05-06T18:26:44.820Z,4.80
2023-05-06T18:29:14.293Z,4.80
2023-05-06T18:31:42.746Z,6.00
2023-05-06T18:34:11.062Z,4.90
2023-05-06T18:36:39.202Z,6.10
2023-05-06T18:39:07.722Z,5.30
2023-05-06T18:41:35.682Z,5.40
2023-05-06T18:44:04.817Z,5.60
2023-05-06T18:46:32.851Z,5.90
2023-05-06T18:49:03.289Z,5.80
2023-05-06T18:51:32.092Z,5.80
2023-05-06T18:54:00.147Z,6.00
2023-05-06T18:56:28.179Z,5.90
2023-05-06T18:58:56.690Z,5.60
2023-05-06T19:01:26.378Z,5.70
2023-05-06T19:03:55.153Z,5.20
2023-05-06T19:06:23.153Z,5.10
2023-05-06T19:08:51.022Z,5.50
2023-05-06T19:11:19.384Z,5.10
2023-05-06T19:13:47.499Z,4.80
2023-05-06T19:16:15.573Z,5.00
2023-05-06T19:18:43.811Z,6.10
2023-05-06T19:21:12.621Z,5.40
2023-05-06T19:23:41.654Z,5.60
2023-05-06T19:26:12.331Z,5.40
2023-05-06T19:28:40.795Z,5.60
2023-05-06T19:31:09.965Z,6.30
2023-05-06T19:33:39.293Z,5.60
2023-05-06T19:36:10.570Z,6.90
2023-05-06T19:41:08.595Z,5.00
2023-05-06T19:43:45.711Z,5.70
2023-05-06T19:46:14.214Z,5.80
2023-05-06T19:48:42.279Z,5.60
2023-05-06T19:51:10.241Z,5.50
2023-05-06T19:53:38.534Z,5.90
2023-05-06T19:56:10.781Z,5.60
2023-05-06T19:58:39.582Z,5.70
2023-05-06T20:01:07.458Z,4.60
2023-05-06T20:03:35.938Z,12.50
2023-05-06T20:06:04.315Z,9.80
2023-05-06T20:08:32.070Z,7.50
2023-05-06T20:10:59.911Z,5.80
2023-05-06T20:13:27.871Z,8.90
2023-05-06T20:15:57.656Z,7.10
2023-05-06T20:18:25.768Z,5.40
2023-05-06T20:20:53.621Z,6.10
2023-05-06T20:23:21.590Z,5.00
2023-05-06T20:25:49.461Z,4.70
2023-05-06T20:28:18.659Z,4.20
2023-05-06T20:30:48.388Z,5.20
2023-05-06T20:33:16.748Z,4.70
2023-05-06T20:35:48.197Z,4.60
2023-05-06T20:40:45.043Z,5.20
2023-05-06T20:43:12.852Z,4.10
2023-05-06T20:45:40.707Z,4.30
2023-05-06T20:48:08.625Z,4.50
2023-05-06T20:50:36.517Z,4.30
2023-05-06T20:53:04.373Z,5.00
2023-05-06T20:55:33.226Z,4.60
2023-05-06T20:58:04.422Z,4.80
2023-05-06T21:00:32.376Z,5.20
2023-05-06T21:03:00.876Z,4.20
2023-05-06T21:05:28.755Z,5.60
2023-05-06T21:07:56.506Z,5.10
2023-05-06T21:10:24.553Z,4.00
2023-05-06T21:12:52.476Z,4.90
2023-05-06T21:15:20.389Z,4.50
2023-05-06T21:17:49.272Z,4.50
2023-05-06T21:20:17.234Z,4.50
2023-05-06T21:22:45.784Z,4.10
2023-05-06T21:25:13.642Z,4.20
2023-05-06T21:27:41.583Z,4.70
2023-05-06T21:30:10.603Z,4.40
2023-05-06T21:32:38.668Z,4.30
2023-05-06T21:35:07.066Z,4.00
2023-05-06T21:37:36.090Z,4.70
2023-05-06T21:40:04.689Z,4.10
2023-05-06T21:42:32.642Z,5.20
2023-05-06T21:45:00.930Z,4.00
2023-05-06T21:47:28.792Z,5.10
2023-05-06T21:49:56.760Z,4.10
2023-05-06T21:52:24.922Z,3.80
2023-05-06T21:54:52.793Z,4.60
2023-05-06T21:57:20.660Z,4.90
2023-05-06T21:59:48.431Z,4.20
2023-05-06T22:02:16.365Z,4.30
2023-05-06T22:04:44.457Z,7.40
2023-05-06T22:07:12.325Z,7.00
2023-05-06T22:09:40.191Z,8.10
2023-05-06T22:12:09.285Z,10.20
2023-05-06T22:14:41.602Z,5.60
2023-05-06T22:17:10.760Z,7.60
2023-05-06T22:19:39.202Z,5.80
2023-05-06T22:22:07.999Z,4.70
2023-05-06T22:24:35.881Z,4.20
2023-05-06T22:27:04.151Z,5.30
2023-05-06T22:29:31.993Z,4.10
2023-05-06T22:31:59.853Z,4.10
2023-05-06T22:34:27.884Z,4.00
2023-05-06T22:36:57.614Z,3.50
2023-05-06T22:39:26.676Z,4.40
2023-05-06T22:41:54.965Z,4.40
2023-05-06T22:44:22.902Z,4.10
2023-05-06T22:46:51.914Z,4.00
2023-05-06T22:49:19.913Z,4.10
2023-05-06T22:51:47.691Z,3.90
2023-05-06T22:54:15.502Z,4.50
2023-05-06T22:56:43.385Z,4.10
2023-05-06T22:59:11.454Z,3.50
2023-05-06T23:01:39.347Z,4.70
2023-05-06T23:04:07.374Z,3.90
2023-05-06T23:06:35.965Z,4.10
2023-05-06T23:09:05.695Z,3.30
2023-05-06T23:11:33.889Z,3.70
2023-05-06T23:14:02.120Z,3.70
2023-05-06T23:16:30.041Z,3.60
2023-05-06T23:18:58.049Z,3.30
2023-05-06T23:21:26.936Z,3.60
2023-05-06T23:23:54.708Z,4.60
2023-05-06T23:26:22.575Z,4.00
2023-05-06T23:28:50.434Z,3.80
2023-05-06T23:31:18.362Z,3.10
2023-05-06T23:33:46.187Z,3.70
2023-05-06T23:36:14.031Z,3.40
2023-05-06T23:38:41.795Z,3.60
2023-05-06T23:41:09.764Z,3.90
2023-05-06T23:43:37.577Z,3.30
2023-05-06T23:46:05.470Z,3.20
2023-05-06T23:48:34.011Z,3.60
2023-05-06T23:51:01.869Z,3.10
2023-05-06T23:53:29.733Z,3.30
2023-05-06T23:55:57.502Z,3.70
2023-05-06T23:58:25.483Z,3.30
